sensor_id;sensor_type;location;lat;lon;timestamp;P1;durP1;ratioP1;P2;durP2;ratioP2
75417;SDS011;63997;52.112;5.420;2023-04-25T00:01:55;9.73;;;2.50;;
75417;SDS011;63997;52.112;5.420;2023-04-25T00:04:22;7.13;;;1.40;;
75417;SDS011;63997;52.112;5.420;2023-04-25T00:06:49;5.47;;;1.20;;
75417;SDS011;63997;52.112;5.420;2023-04-25T00:09:16;6.20;;;1.27;;
75417;SDS011;63997;52.112;5.420;2023-04-25T00:11:42;5.75;;;1.10;;
75417;SDS011;63997;52.112;5.420;2023-04-25T00:14:08;9.25;;;1.45;;
75417;SDS011;63997;52.112;5.420;2023-04-25T00:16:35;5.45;;;1.00;;
75417;SDS011;63997;52.112;5.420;2023-04-25T00:19:02;8.75;;;1.52;;
75417;SDS011;63997;52.112;5.420;2023-04-25T00:21:29;8.27;;;1.60;;
75417;SDS011;63997;52.112;5.420;2023-04-25T00:23:57;11.82;;;1.80;;
75417;SDS011;63997;52.112;5.420;2023-04-25T00:26:24;15.45;;;1.75;;
75417;SDS011;63997;52.112;5.420;2023-04-25T00:28:51;9.88;;;1.52;;
75417;SDS011;63997;52.112;5.420;2023-04-25T00:31:17;11.98;;;1.92;;
75417;SDS011;63997;52.112;5.420;2023-04-25T00:33:44;11.73;;;1.50;;
75417;SDS011;63997;52.112;5.420;2023-04-25T00:36:10;7.80;;;1.25;;
75417;SDS011;63997;52.112;5.420;2023-04-25T00:38:38;4.13;;;1.60;;
75417;SDS011;63997;52.112;5.420;2023-04-25T00:41:07;10.32;;;1.40;;
75417;SDS011;63997;52.112;5.420;2023-04-25T00:43:34;8.68;;;1.33;;
75417;SDS011;63997;52.112;5.420;2023-04-25T00:46:02;5.03;;;1.40;;
75417;SDS011;63997;52.112;5.420;2023-04-25T00:48:29;10.85;;;1.40;;
75417;SDS011;63997;52.112;5.420;2023-04-25T00:50:58;9.30;;;1.42;;
75417;SDS011;63997;52.112;5.420;2023-04-25T00:53:26;10.60;;;1.52;;
75417;SDS011;63997;52.112;5.420;2023-04-25T00:55:53;13.48;;;2.13;;
75417;SDS011;63997;52.112;5.420;2023-04-25T00:58:20;10.30;;;2.63;;
75417;SDS011;63997;52.112;5.420;2023-04-25T01:00:48;14.15;;;2.45;;
75417;SDS011;63997;52.112;5.420;2023-04-25T01:03:16;12.68;;;1.60;;
75417;SDS011;63997;52.112;5.420;2023-04-25T01:05:43;6.35;;;1.52;;
75417;SDS011;63997;52.112;5.420;2023-04-25T01:08:10;8.80;;;1.63;;
75417;SDS011;63997;52.112;5.420;2023-04-25T01:10:36;12.53;;;1.60;;
75417;SDS011;63997;52.112;5.420;2023-04-25T01:13:03;4.40;;;1.27;;
75417;SDS011;63997;52.112;5.420;2023-04-25T01:15:29;5.38;;;1.77;;
75417;SDS011;63997;52.112;5.420;2023-04-25T01:17:57;9.52;;;1.63;;
75417;SDS011;63997;52.112;5.420;2023-04-25T01:20:24;10.20;;;1.98;;
75417;SDS011;63997;52.112;5.420;2023-04-25T01:22:51;8.63;;;2.50;;
75417;SDS011;63997;52.112;5.420;2023-04-25T01:25:18;5.80;;;1.35;;
75417;SDS011;63997;52.112;5.420;2023-04-25T01:27:45;4.70;;;1.27;;
75417;SDS011;63997;52.112;5.420;2023-04-25T01:30:13;7.13;;;1.55;;
75417;SDS011;63997;52.112;5.420;2023-04-25T01:32:39;6.70;;;1.48;;
75417;SDS011;63997;52.112;5.420;2023-04-25T01:35:08;7.60;;;1.00;;
75417;SDS011;63997;52.112;5.420;2023-04-25T01:37:37;5.18;;;1.13;;
75417;SDS011;63997;52.112;5.420;2023-04-25T01:40:07;14.80;;;1.40;;
75417;SDS011;63997;52.112;5.420;2023-04-25T01:42:36;6.15;;;1.10;;
75417;SDS011;63997;52.112;5.420;2023-04-25T01:45:04;5.18;;;1.40;;
75417;SDS011;63997;52.112;5.420;2023-04-25T01:47:32;10.87;;;1.30;;
75417;SDS011;63997;52.112;5.420;2023-04-25T01:50:02;8.07;;;1.52;;
75417;SDS011;63997;52.112;5.420;2023-04-25T01:52:31;6.30;;;1.10;;
75417;SDS011;63997;52.112;5.420;2023-04-25T01:54:57;6.70;;;1.10;;
75417;SDS011;63997;52.112;5.420;2023-04-25T01:57:27;6.28;;;1.27;;
75417;SDS011;63997;52.112;5.420;2023-04-25T01:59:55;9.27;;;1.57;;
75417;SDS011;63997;52.112;5.420;2023-04-25T02:02:25;7.45;;;1.38;;
75417;SDS011;63997;52.112;5.420;2023-04-25T02:04:52;9.50;;;1.40;;
75417;SDS011;63997;52.112;5.420;2023-04-25T02:07:20;9.50;;;1.30;;
75417;SDS011;63997;52.112;5.420;2023-04-25T02:09:46;8.13;;;1.65;;
75417;SDS011;63997;52.112;5.420;2023-04-25T02:12:13;11.90;;;1.47;;
75417;SDS011;63997;52.112;5.420;2023-04-25T02:14:39;8.35;;;0.93;;
75417;SDS011;63997;52.112;5.420;2023-04-25T02:17:06;5.13;;;1.13;;
75417;SDS011;63997;52.112;5.420;2023-04-25T02:19:33;7.32;;;1.20;;
75417;SDS011;63997;52.112;5.420;2023-04-25T02:21:59;13.80;;;1.45;;
75417;SDS011;63997;52.112;5.420;2023-04-25T02:24:26;3.80;;;1.30;;
75417;SDS011;63997;52.112;5.420;2023-04-25T02:26:53;8.95;;;1.23;;
75417;SDS011;63997;52.112;5.420;2023-04-25T02:29:21;8.65;;;1.27;;
75417;SDS011;63997;52.112;5.420;2023-04-25T02:31:48;7.38;;;1.08;;
75417;SDS011;63997;52.112;5.420;2023-04-25T02:34:14;11.45;;;1.67;;
75417;SDS011;63997;52.112;5.420;2023-04-25T02:36:41;5.73;;;1.27;;
75417;SDS011;63997;52.112;5.420;2023-04-25T02:39:07;9.77;;;1.55;;
75417;SDS011;63997;52.112;5.420;2023-04-25T02:41:34;10.07;;;1.77;;
75417;SDS011;63997;52.112;5.420;2023-04-25T02:44:00;8.57;;;1.10;;
75417;SDS011;63997;52.112;5.420;2023-04-25T02:46:26;7.00;;;1.50;;
75417;SDS011;63997;52.112;5.420;2023-04-25T02:49:05;4.70;;;0.93;;
75417;SDS011;63997;52.112;5.420;2023-04-25T02:51:31;9.70;;;1.00;;
75417;SDS011;63997;52.112;5.420;2023-04-25T02:53:58;7.85;;;1.30;;
75417;SDS011;63997;52.112;5.420;2023-04-25T02:56:24;5.63;;;1.20;;
75417;SDS011;63997;52.112;5.420;2023-04-25T02:58:52;8.25;;;1.40;;
75417;SDS011;63997;52.112;5.420;2023-04-25T03:01:19;9.27;;;1.20;;
75417;SDS011;63997;52.112;5.420;2023-04-25T03:03:46;6.22;;;1.27;;
75417;SDS011;63997;52.112;5.420;2023-04-25T03:06:13;4.38;;;1.08;;
75417;SDS011;63997;52.112;5.420;2023-04-25T03:08:40;4.65;;;1.27;;
75417;SDS011;63997;52.112;5.420;2023-04-25T03:11:07;6.57;;;1.05;;
75417;SDS011;63997;52.112;5.420;2023-04-25T03:13:33;4.67;;;1.50;;
75417;SDS011;63997;52.112;5.420;2023-04-25T03:16:00;7.57;;;2.28;;
75417;SDS011;63997;52.112;5.420;2023-04-25T03:18:27;7.40;;;1.73;;
75417;SDS011;63997;52.112;5.420;2023-04-25T03:20:53;9.73;;;1.55;;
75417;SDS011;63997;52.112;5.420;2023-04-25T03:23:19;11.35;;;2.03;;
75417;SDS011;63997;52.112;5.420;2023-04-25T03:25:46;7.07;;;1.70;;
75417;SDS011;63997;52.112;5.420;2023-04-25T03:28:12;8.43;;;1.73;;
75417;SDS011;63997;52.112;5.420;2023-04-25T03:30:39;9.05;;;1.70;;
75417;SDS011;63997;52.112;5.420;2023-04-25T03:33:05;12.05;;;1.90;;
75417;SDS011;63997;52.112;5.420;2023-04-25T03:35:32;6.93;;;1.80;;
75417;SDS011;63997;52.112;5.420;2023-04-25T03:37:58;10.53;;;2.13;;
75417;SDS011;63997;52.112;5.420;2023-04-25T03:40:25;7.95;;;1.30;;
75417;SDS011;63997;52.112;5.420;2023-04-25T03:42:52;8.43;;;2.00;;
75417;SDS011;63997;52.112;5.420;2023-04-25T03:45:18;4.65;;;1.30;;
75417;SDS011;63997;52.112;5.420;2023-04-25T03:47:44;10.88;;;1.83;;
75417;SDS011;63997;52.112;5.420;2023-04-25T03:50:11;3.77;;;1.40;;
75417;SDS011;63997;52.112;5.420;2023-04-25T03:52:38;4.90;;;1.50;;
75417;SDS011;63997;52.112;5.420;2023-04-25T03:55:04;6.93;;;1.63;;
75417;SDS011;63997;52.112;5.420;2023-04-25T03:57:31;9.57;;;1.70;;
75417;SDS011;63997;52.112;5.420;2023-04-25T03:59:57;5.63;;;1.25;;
75417;SDS011;63997;52.112;5.420;2023-04-25T04:02:24;5.47;;;1.57;;
75417;SDS011;63997;52.112;5.420;2023-04-25T04:04:50;4.63;;;1.33;;
75417;SDS011;63997;52.112;5.420;2023-04-25T04:07:17;10.15;;;1.30;;
75417;SDS011;63997;52.112;5.420;2023-04-25T04:09:43;13.57;;;1.88;;
75417;SDS011;63997;52.112;5.420;2023-04-25T04:12:10;9.77;;;1.20;;
75417;SDS011;63997;52.112;5.420;2023-04-25T04:14:36;7.97;;;1.50;;
75417;SDS011;63997;52.112;5.420;2023-04-25T04:17:03;12.73;;;1.63;;
75417;SDS011;63997;52.112;5.420;2023-04-25T04:19:29;5.50;;;0.98;;
75417;SDS011;63997;52.112;5.420;2023-04-25T04:21:55;5.80;;;1.00;;
75417;SDS011;63997;52.112;5.420;2023-04-25T04:24:22;11.75;;;1.85;;
75417;SDS011;63997;52.112;5.420;2023-04-25T04:26:48;10.37;;;1.20;;
75417;SDS011;63997;52.112;5.420;2023-04-25T04:29:16;4.32;;;0.88;;
75417;SDS011;63997;52.112;5.420;2023-04-25T04:31:47;7.25;;;1.40;;
75417;SDS011;63997;52.112;5.420;2023-04-25T04:34:16;5.68;;;1.40;;
75417;SDS011;63997;52.112;5.420;2023-04-25T04:36:44;8.85;;;1.20;;
75417;SDS011;63997;52.112;5.420;2023-04-25T04:39:12;8.93;;;0.97;;
75417;SDS011;63997;52.112;5.420;2023-04-25T04:41:39;4.68;;;1.02;;
75417;SDS011;63997;52.112;5.420;2023-04-25T04:44:06;10.40;;;1.27;;
75417;SDS011;63997;52.112;5.420;2023-04-25T04:46:34;4.40;;;1.10;;
75417;SDS011;63997;52.112;5.420;2023-04-25T04:49:13;5.13;;;1.30;;
75417;SDS011;63997;52.112;5.420;2023-04-25T04:51:42;4.30;;;0.63;;
75417;SDS011;63997;52.112;5.420;2023-04-25T04:54:10;5.70;;;0.90;;
75417;SDS011;63997;52.112;5.420;2023-04-25T04:56:36;6.63;;;0.63;;
75417;SDS011;63997;52.112;5.420;2023-04-25T04:59:03;4.07;;;0.77;;
75417;SDS011;63997;52.112;5.420;2023-04-25T05:01:29;8.90;;;0.98;;
75417;SDS011;63997;52.112;5.420;2023-04-25T05:03:56;5.27;;;1.00;;
75417;SDS011;63997;52.112;5.420;2023-04-25T05:06:27;4.43;;;0.70;;
75417;SDS011;63997;52.112;5.420;2023-04-25T05:08:55;7.18;;;1.33;;
75417;SDS011;63997;52.112;5.420;2023-04-25T05:11:22;4.80;;;1.00;;
75417;SDS011;63997;52.112;5.420;2023-04-25T05:13:50;8.25;;;1.60;;
75417;SDS011;63997;52.112;5.420;2023-04-25T05:16:18;7.40;;;0.80;;
75417;SDS011;63997;52.112;5.420;2023-04-25T05:18:46;4.82;;;0.55;;
75417;SDS011;63997;52.112;5.420;2023-04-25T05:21:13;7.47;;;1.10;;
75417;SDS011;63997;52.112;5.420;2023-04-25T05:23:40;6.75;;;1.30;;
75417;SDS011;63997;52.112;5.420;2023-04-25T05:26:06;7.30;;;0.70;;
75417;SDS011;63997;52.112;5.420;2023-04-25T05:28:40;6.87;;;0.70;;
75417;SDS011;63997;52.112;5.420;2023-04-25T05:31:09;4.70;;;0.57;;
75417;SDS011;63997;52.112;5.420;2023-04-25T05:33:36;5.15;;;0.90;;
75417;SDS011;63997;52.112;5.420;2023-04-25T05:36:03;7.55;;;1.02;;
75417;SDS011;63997;52.112;5.420;2023-04-25T05:38:29;6.15;;;1.20;;
75417;SDS011;63997;52.112;5.420;2023-04-25T05:40:59;5.40;;;0.70;;
75417;SDS011;63997;52.112;5.420;2023-04-25T05:43:26;4.13;;;0.90;;
75417;SDS011;63997;52.112;5.420;2023-04-25T05:45:52;5.35;;;1.00;;
75417;SDS011;63997;52.112;5.420;2023-04-25T05:48:19;7.05;;;0.80;;
75417;SDS011;63997;52.112;5.420;2023-04-25T05:50:45;5.30;;;0.70;;
75417;SDS011;63997;52.112;5.420;2023-04-25T05:53:11;3.90;;;0.67;;
75417;SDS011;63997;52.112;5.420;2023-04-25T05:55:38;5.97;;;0.63;;
75417;SDS011;63997;52.112;5.420;2023-04-25T05:58:05;4.97;;;0.80;;
75417;SDS011;63997;52.112;5.420;2023-04-25T06:00:32;4.40;;;0.98;;
75417;SDS011;63997;52.112;5.420;2023-04-25T06:02:59;3.10;;;0.73;;
75417;SDS011;63997;52.112;5.420;2023-04-25T06:05:25;3.37;;;0.70;;
75417;SDS011;63997;52.112;5.420;2023-04-25T06:07:53;8.35;;;1.00;;
75417;SDS011;63997;52.112;5.420;2023-04-25T06:10:20;6.53;;;0.80;;
75417;SDS011;63997;52.112;5.420;2023-04-25T06:12:47;2.85;;;0.80;;
75417;SDS011;63997;52.112;5.420;2023-04-25T06:15:13;5.05;;;0.70;;
75417;SDS011;63997;52.112;5.420;2023-04-25T06:17:53;4.57;;;0.70;;
75417;SDS011;63997;52.112;5.420;2023-04-25T06:20:20;6.03;;;0.75;;
75417;SDS011;63997;52.112;5.420;2023-04-25T06:22:49;6.60;;;1.08;;
75417;SDS011;63997;52.112;5.420;2023-04-25T06:25:16;6.28;;;0.60;;
75417;SDS011;63997;52.112;5.420;2023-04-25T06:27:43;9.48;;;0.70;;
75417;SDS011;63997;52.112;5.420;2023-04-25T06:30:09;6.30;;;0.80;;
75417;SDS011;63997;52.112;5.420;2023-04-25T06:32:38;6.03;;;1.42;;
75417;SDS011;63997;52.112;5.420;2023-04-25T06:35:05;7.10;;;0.70;;
75417;SDS011;63997;52.112;5.420;2023-04-25T06:37:33;3.78;;;0.80;;
75417;SDS011;63997;52.112;5.420;2023-04-25T06:39:59;3.33;;;0.30;;
75417;SDS011;63997;52.112;5.420;2023-04-25T06:42:25;4.37;;;0.57;;
75417;SDS011;63997;52.112;5.420;2023-04-25T06:44:52;7.90;;;1.50;;
75417;SDS011;63997;52.112;5.420;2023-04-25T06:47:18;3.42;;;0.60;;
75417;SDS011;63997;52.112;5.420;2023-04-25T06:49:45;7.10;;;0.90;;
75417;SDS011;63997;52.112;5.420;2023-04-25T06:52:11;5.32;;;0.60;;
75417;SDS011;63997;52.112;5.420;2023-04-25T06:54:37;2.70;;;0.73;;
75417;SDS011;63997;52.112;5.420;2023-04-25T06:57:04;6.93;;;1.02;;
75417;SDS011;63997;52.112;5.420;2023-04-25T06:59:33;7.05;;;1.05;;
75417;SDS011;63997;52.112;5.420;2023-04-25T07:01:59;4.93;;;0.60;;
75417;SDS011;63997;52.112;5.420;2023-04-25T07:04:25;3.67;;;0.85;;
75417;SDS011;63997;52.112;5.420;2023-04-25T07:06:52;5.47;;;1.93;;
75417;SDS011;63997;52.112;5.420;2023-04-25T07:09:23;8.57;;;0.60;;
75417;SDS011;63997;52.112;5.420;2023-04-25T07:11:49;3.92;;;0.60;;
75417;SDS011;63997;52.112;5.420;2023-04-25T07:14:16;12.38;;;1.48;;
75417;SDS011;63997;52.112;5.420;2023-04-25T07:16:42;8.90;;;0.63;;
75417;SDS011;63997;52.112;5.420;2023-04-25T07:19:11;2.50;;;0.33;;
75417;SDS011;63997;52.112;5.420;2023-04-25T07:21:37;4.43;;;1.08;;
75417;SDS011;63997;52.112;5.420;2023-04-25T07:24:04;3.80;;;0.60;;
75417;SDS011;63997;52.112;5.420;2023-04-25T07:26:31;6.85;;;0.70;;
75417;SDS011;63997;52.112;5.420;2023-04-25T07:28:57;5.85;;;0.73;;
75417;SDS011;63997;52.112;5.420;2023-04-25T07:31:23;3.30;;;0.37;;
75417;SDS011;63997;52.112;5.420;2023-04-25T07:33:50;4.72;;;0.43;;
75417;SDS011;63997;52.112;5.420;2023-04-25T07:36:17;10.20;;;0.80;;
75417;SDS011;63997;52.112;5.420;2023-04-25T07:38:43;6.18;;;0.70;;
75417;SDS011;63997;52.112;5.420;2023-04-25T07:41:09;11.20;;;0.60;;
75417;SDS011;63997;52.112;5.420;2023-04-25T07:43:36;5.87;;;0.63;;
75417;SDS011;63997;52.112;5.420;2023-04-25T07:46:02;5.38;;;0.93;;
75417;SDS011;63997;52.112;5.420;2023-04-25T07:48:29;9.57;;;0.70;;
75417;SDS011;63997;52.112;5.420;2023-04-25T07:50:55;5.25;;;0.40;;
75417;SDS011;63997;52.112;5.420;2023-04-25T07:53:22;10.40;;;0.75;;
75417;SDS011;63997;52.112;5.420;2023-04-25T07:55:48;4.47;;;0.47;;
75417;SDS011;63997;52.112;5.420;2023-04-25T07:58:14;6.38;;;0.70;;
75417;SDS011;63997;52.112;5.420;2023-04-25T08:00:41;7.70;;;0.50;;
75417;SDS011;63997;52.112;5.420;2023-04-25T08:03:09;3.72;;;0.60;;
75417;SDS011;63997;52.112;5.420;2023-04-25T08:05:35;4.45;;;0.40;;
75417;SDS011;63997;52.112;5.420;2023-04-25T08:08:03;4.50;;;0.53;;
75417;SDS011;63997;52.112;5.420;2023-04-25T08:10:32;5.38;;;0.90;;
75417;SDS011;63997;52.112;5.420;2023-04-25T08:12:59;3.38;;;0.30;;
75417;SDS011;63997;52.112;5.420;2023-04-25T08:15:25;4.97;;;0.40;;
75417;SDS011;63997;52.112;5.420;2023-04-25T08:17:53;3.92;;;0.40;;
75417;SDS011;63997;52.112;5.420;2023-04-25T08:20:20;3.87;;;0.50;;
75417;SDS011;63997;52.112;5.420;2023-04-25T08:22:46;6.40;;;1.00;;
75417;SDS011;63997;52.112;5.420;2023-04-25T08:25:14;6.22;;;0.60;;
75417;SDS011;63997;52.112;5.420;2023-04-25T08:27:42;4.03;;;0.60;;
75417;SDS011;63997;52.112;5.420;2023-04-25T08:30:09;4.72;;;0.63;;
75417;SDS011;63997;52.112;5.420;2023-04-25T08:32:36;5.63;;;0.70;;
75417;SDS011;63997;52.112;5.420;2023-04-25T08:35:04;5.35;;;0.40;;
75417;SDS011;63997;52.112;5.420;2023-04-25T08:37:31;2.35;;;0.50;;
75417;SDS011;63997;52.112;5.420;2023-04-25T08:39:58;3.78;;;0.30;;
75417;SDS011;63997;52.112;5.420;2023-04-25T08:42:24;2.28;;;0.25;;
75417;SDS011;63997;52.112;5.420;2023-04-25T08:44:53;7.43;;;0.50;;
75417;SDS011;63997;52.112;5.420;2023-04-25T08:47:20;2.22;;;0.40;;
75417;SDS011;63997;52.112;5.420;2023-04-25T08:49:48;2.50;;;0.30;;
75417;SDS011;63997;52.112;5.420;2023-04-25T08:52:16;1.83;;;0.50;;
75417;SDS011;63997;52.112;5.420;2023-04-25T08:54:48;2.65;;;0.30;;
75417;SDS011;63997;52.112;5.420;2023-04-25T08:57:15;3.63;;;0.30;;
75417;SDS011;63997;52.112;5.420;2023-04-25T08:59:43;3.33;;;0.30;;
75417;SDS011;63997;52.112;5.420;2023-04-25T09:02:12;5.05;;;0.35;;
75417;SDS011;63997;52.112;5.420;2023-04-25T09:04:44;4.00;;;0.50;;
75417;SDS011;63997;52.112;5.420;2023-04-25T09:07:10;5.82;;;0.73;;
75417;SDS011;63997;52.112;5.420;2023-04-25T09:09:37;2.97;;;0.80;;
75417;SDS011;63997;52.112;5.420;2023-04-25T09:12:04;3.83;;;0.47;;
75417;SDS011;63997;52.112;5.420;2023-04-25T09:14:31;1.77;;;0.30;;
75417;SDS011;63997;52.112;5.420;2023-04-25T09:16:58;2.03;;;0.30;;
75417;SDS011;63997;52.112;5.420;2023-04-25T09:19:28;3.35;;;0.93;;
75417;SDS011;63997;52.112;5.420;2023-04-25T09:22:02;2.93;;;0.30;;
75417;SDS011;63997;52.112;5.420;2023-04-25T09:24:34;3.38;;;0.52;;
75417;SDS011;63997;52.112;5.420;2023-04-25T09:27:10;4.00;;;0.55;;
75417;SDS011;63997;52.112;5.420;2023-04-25T09:29:38;9.05;;;0.60;;
75417;SDS011;63997;52.112;5.420;2023-04-25T09:32:14;8.20;;;0.40;;
75417;SDS011;63997;52.112;5.420;2023-04-25T09:34:47;1.93;;;0.40;;
75417;SDS011;63997;52.112;5.420;2023-04-25T09:37:37;5.60;;;0.22;;
75417;SDS011;63997;52.112;5.420;2023-04-25T09:40:04;3.33;;;0.93;;
75417;SDS011;63997;52.112;5.420;2023-04-25T09:42:33;2.85;;;0.40;;
75417;SDS011;63997;52.112;5.420;2023-04-25T09:45:01;6.95;;;0.70;;
75417;SDS011;63997;52.112;5.420;2023-04-25T09:47:29;4.77;;;1.30;;
75417;SDS011;63997;52.112;5.420;2023-04-25T09:49:56;3.10;;;0.40;;
75417;SDS011;63997;52.112;5.420;2023-04-25T09:52:23;2.85;;;0.40;;
75417;SDS011;63997;52.112;5.420;2023-04-25T09:54:51;3.53;;;0.40;;
75417;SDS011;63997;52.112;5.420;2023-04-25T09:57:19;3.67;;;0.30;;
75417;SDS011;63997;52.112;5.420;2023-04-25T09:59:48;2.17;;;0.40;;
75417;SDS011;63997;52.112;5.420;2023-04-25T10:02:17;1.35;;;0.22;;
75417;SDS011;63997;52.112;5.420;2023-04-25T10:04:48;3.95;;;0.40;;
75417;SDS011;63997;52.112;5.420;2023-04-25T10:07:18;2.30;;;0.25;;
75417;SDS011;63997;52.112;5.420;2023-04-25T10:09:47;3.67;;;0.20;;
75417;SDS011;63997;52.112;5.420;2023-04-25T10:12:16;4.60;;;0.50;;
75417;SDS011;63997;52.112;5.420;2023-04-25T10:14:43;2.50;;;0.40;;
75417;SDS011;63997;52.112;5.420;2023-04-25T10:17:10;4.55;;;0.40;;
75417;SDS011;63997;52.112;5.420;2023-04-25T10:19:37;2.30;;;0.35;;
75417;SDS011;63997;52.112;5.420;2023-04-25T10:22:07;5.60;;;0.55;;
75417;SDS011;63997;52.112;5.420;2023-04-25T10:24:39;3.40;;;0.37;;
75417;SDS011;63997;52.112;5.420;2023-04-25T10:27:05;3.42;;;0.30;;
75417;SDS011;63997;52.112;5.420;2023-04-25T10:29:33;1.63;;;0.40;;
75417;SDS011;63997;52.112;5.420;2023-04-25T10:32:01;1.75;;;0.28;;
75417;SDS011;63997;52.112;5.420;2023-04-25T10:34:41;5.90;;;0.32;;
75417;SDS011;63997;52.112;5.420;2023-04-25T10:37:15;5.40;;;0.33;;
75417;SDS011;63997;52.112;5.420;2023-04-25T10:39:42;4.13;;;0.40;;
75417;SDS011;63997;52.112;5.420;2023-04-25T10:42:08;2.03;;;0.30;;
75417;SDS011;63997;52.112;5.420;2023-04-25T10:44:36;2.10;;;0.52;;
75417;SDS011;63997;52.112;5.420;2023-04-25T10:47:06;2.45;;;0.40;;
75417;SDS011;63997;52.112;5.420;2023-04-25T10:49:34;4.13;;;0.63;;
75417;SDS011;63997;52.112;5.420;2023-04-25T10:52:15;3.20;;;0.40;;
75417;SDS011;63997;52.112;5.420;2023-04-25T10:54:56;3.30;;;0.63;;
75417;SDS011;63997;52.112;5.420;2023-04-25T10:57:42;1.35;;;0.20;;
75417;SDS011;63997;52.112;5.420;2023-04-25T11:00:11;4.32;;;0.38;;
75417;SDS011;63997;52.112;5.420;2023-04-25T11:02:51;4.80;;;0.60;;
75417;SDS011;63997;52.112;5.420;2023-04-25T11:05:20;3.50;;;0.30;;
75417;SDS011;63997;52.112;5.420;2023-04-25T11:07:50;4.95;;;0.40;;
75417;SDS011;63997;52.112;5.420;2023-04-25T11:10:30;5.90;;;0.52;;
75417;SDS011;63997;52.112;5.420;2023-04-25T11:12:57;2.83;;;0.30;;
75417;SDS011;63997;52.112;5.420;2023-04-25T11:15:24;4.00;;;0.30;;
75417;SDS011;63997;52.112;5.420;2023-04-25T11:17:51;3.92;;;0.50;;
75417;SDS011;63997;52.112;5.420;2023-04-25T11:20:18;3.78;;;0.40;;
75417;SDS011;63997;52.112;5.420;2023-04-25T11:22:46;1.83;;;0.28;;
75417;SDS011;63997;52.112;5.420;2023-04-25T11:25:13;5.45;;;0.47;;
75417;SDS011;63997;52.112;5.420;2023-04-25T11:30:22;4.57;;;0.40;;
75417;SDS011;63997;52.112;5.420;2023-04-25T11:32:51;3.13;;;0.60;;
75417;SDS011;63997;52.112;5.420;2023-04-25T11:35:19;2.35;;;0.20;;
75417;SDS011;63997;52.112;5.420;2023-04-25T11:37:46;2.72;;;0.60;;
75417;SDS011;63997;52.112;5.420;2023-04-25T11:40:13;3.47;;;0.27;;
75417;SDS011;63997;52.112;5.420;2023-04-25T11:42:43;2.42;;;0.50;;
75417;SDS011;63997;52.112;5.420;2023-04-25T11:45:12;2.47;;;0.40;;
75417;SDS011;63997;52.112;5.420;2023-04-25T11:47:40;3.08;;;0.40;;
75417;SDS011;63997;52.112;5.420;2023-04-25T11:50:07;7.88;;;1.70;;
75417;SDS011;63997;52.112;5.420;2023-04-25T11:52:40;3.10;;;0.50;;
75417;SDS011;63997;52.112;5.420;2023-04-25T11:55:09;5.25;;;0.70;;
75417;SDS011;63997;52.112;5.420;2023-04-25T11:57:46;4.68;;;0.77;;
75417;SDS011;63997;52.112;5.420;2023-04-25T12:00:18;4.80;;;0.50;;
75417;SDS011;63997;52.112;5.420;2023-04-25T12:02:47;4.75;;;0.30;;
75417;SDS011;63997;52.112;5.420;2023-04-25T12:05:19;5.67;;;0.60;;
75417;SDS011;63997;52.112;5.420;2023-04-25T12:08:09;5.15;;;1.33;;
75417;SDS011;63997;52.112;5.420;2023-04-25T12:10:40;2.55;;;0.40;;
75417;SDS011;63997;52.112;5.420;2023-04-25T12:13:20;3.83;;;0.70;;
75417;SDS011;63997;52.112;5.420;2023-04-25T12:15:48;4.13;;;0.50;;
75417;SDS011;63997;52.112;5.420;2023-04-25T12:18:18;7.63;;;1.40;;
75417;SDS011;63997;52.112;5.420;2023-04-25T12:20:45;2.95;;;0.77;;
75417;SDS011;63997;52.112;5.420;2023-04-25T12:23:12;3.05;;;0.50;;
75417;SDS011;63997;52.112;5.420;2023-04-25T12:25:42;3.15;;;0.30;;
75417;SDS011;63997;52.112;5.420;2023-04-25T12:28:14;2.85;;;0.57;;
75417;SDS011;63997;52.112;5.420;2023-04-25T12:33:32;1.77;;;0.40;;
75417;SDS011;63997;52.112;5.420;2023-04-25T12:36:00;3.92;;;0.47;;
75417;SDS011;63997;52.112;5.420;2023-04-25T12:38:51;2.22;;;0.30;;
75417;SDS011;63997;52.112;5.420;2023-04-25T12:41:18;2.22;;;0.50;;
75417;SDS011;63997;52.112;5.420;2023-04-25T12:43:45;4.03;;;0.43;;
75417;SDS011;63997;52.112;5.420;2023-04-25T12:46:11;4.40;;;0.30;;
75417;SDS011;63997;52.112;5.420;2023-04-25T12:48:38;1.70;;;0.30;;
75417;SDS011;63997;52.112;5.420;2023-04-25T12:51:04;4.97;;;0.30;;
75417;SDS011;63997;52.112;5.420;2023-04-25T12:53:31;3.85;;;0.82;;
75417;SDS011;63997;52.112;5.420;2023-04-25T12:56:00;3.33;;;0.70;;
75417;SDS011;63997;52.112;5.420;2023-04-25T12:58:27;2.83;;;1.35;;
75417;SDS011;63997;52.112;5.420;2023-04-25T13:00:53;4.57;;;0.88;;
75417;SDS011;63997;52.112;5.420;2023-04-25T13:03:20;5.07;;;2.55;;
75417;SDS011;63997;52.112;5.420;2023-04-25T13:05:47;1.27;;;0.38;;
75417;SDS011;63997;52.112;5.420;2023-04-25T13:08:14;1.37;;;0.30;;
75417;SDS011;63997;52.112;5.420;2023-04-25T13:10:41;3.60;;;0.40;;
75417;SDS011;63997;52.112;5.420;2023-04-25T13:13:08;3.92;;;0.50;;
75417;SDS011;63997;52.112;5.420;2023-04-25T13:15:34;4.53;;;0.38;;
75417;SDS011;63997;52.112;5.420;2023-04-25T13:18:01;2.92;;;0.50;;
75417;SDS011;63997;52.112;5.420;2023-04-25T13:20:29;6.17;;;0.40;;
75417;SDS011;63997;52.112;5.420;2023-04-25T13:22:55;4.97;;;0.70;;
75417;SDS011;63997;52.112;5.420;2023-04-25T13:25:21;0.60;;;0.30;;
75417;SDS011;63997;52.112;5.420;2023-04-25T13:27:48;2.50;;;0.38;;
75417;SDS011;63997;52.112;5.420;2023-04-25T13:30:14;4.10;;;0.30;;
75417;SDS011;63997;52.112;5.420;2023-04-25T13:32:41;1.00;;;0.33;;
75417;SDS011;63997;52.112;5.420;2023-04-25T13:35:08;1.88;;;0.30;;
75417;SDS011;63997;52.112;5.420;2023-04-25T13:37:37;4.03;;;0.50;;
75417;SDS011;63997;52.112;5.420;2023-04-25T13:40:05;1.80;;;0.30;;
75417;SDS011;63997;52.112;5.420;2023-04-25T13:42:35;1.13;;;0.22;;
75417;SDS011;63997;52.112;5.420;2023-04-25T13:45:02;7.83;;;0.57;;
75417;SDS011;63997;52.112;5.420;2023-04-25T13:47:29;5.07;;;0.43;;
75417;SDS011;63997;52.112;5.420;2023-04-25T13:49:56;4.82;;;0.52;;
75417;SDS011;63997;52.112;5.420;2023-04-25T13:52:23;5.75;;;0.30;;
75417;SDS011;63997;52.112;5.420;2023-04-25T13:54:50;1.67;;;0.30;;
75417;SDS011;63997;52.112;5.420;2023-04-25T13:57:17;4.87;;;0.70;;
75417;SDS011;63997;52.112;5.420;2023-04-25T13:59:44;2.63;;;0.45;;
75417;SDS011;63997;52.112;5.420;2023-04-25T14:02:10;2.80;;;0.50;;
75417;SDS011;63997;52.112;5.420;2023-04-25T14:04:37;5.63;;;0.60;;
75417;SDS011;63997;52.112;5.420;2023-04-25T14:07:03;5.63;;;0.40;;
75417;SDS011;63997;52.112;5.420;2023-04-25T14:09:30;3.57;;;0.70;;
75417;SDS011;63997;52.112;5.420;2023-04-25T14:11:57;2.45;;;0.50;;
75417;SDS011;63997;52.112;5.420;2023-04-25T14:14:23;5.90;;;0.50;;
75417;SDS011;63997;52.112;5.420;2023-04-25T14:16:50;6.07;;;0.68;;
75417;SDS011;63997;52.112;5.420;2023-04-25T14:19:20;3.70;;;0.57;;
75417;SDS011;63997;52.112;5.420;2023-04-25T14:21:47;11.37;;;0.57;;
75417;SDS011;63997;52.112;5.420;2023-04-25T14:24:14;2.45;;;0.40;;
75417;SDS011;63997;52.112;5.420;2023-04-25T14:26:40;1.83;;;0.40;;
75417;SDS011;63997;52.112;5.420;2023-04-25T14:29:08;3.70;;;0.40;;
75417;SDS011;63997;52.112;5.420;2023-04-25T14:31:35;6.18;;;0.50;;
75417;SDS011;63997;52.112;5.420;2023-04-25T14:34:01;4.07;;;0.40;;
75417;SDS011;63997;52.112;5.420;2023-04-25T14:36:28;2.85;;;0.40;;
75417;SDS011;63997;52.112;5.420;2023-04-25T14:38:55;2.95;;;0.63;;
75417;SDS011;63997;52.112;5.420;2023-04-25T14:41:21;3.05;;;0.50;;
75417;SDS011;63997;52.112;5.420;2023-04-25T14:43:49;3.33;;;0.38;;
75417;SDS011;63997;52.112;5.420;2023-04-25T14:46:15;1.70;;;0.30;;
75417;SDS011;63997;52.112;5.420;2023-04-25T14:48:42;1.77;;;0.47;;
75417;SDS011;63997;52.112;5.420;2023-04-25T14:51:09;3.63;;;0.77;;
75417;SDS011;63997;52.112;5.420;2023-04-25T14:53:35;2.28;;;0.30;;
75417;SDS011;63997;52.112;5.420;2023-04-25T14:56:02;1.70;;;0.45;;